sensor_id;sensor_type;location;lat;lon;timestamp;P1;durP1;ratioP1;P2;durP2;ratioP2
20251;SDS011;10284;58.364;15.550;2022-12-07T00:01:34;13.55;;;5.63;;
20251;SDS011;10284;58.364;15.550;2022-12-07T00:04:01;10.57;;;5.07;;
20251;SDS011;10284;58.364;15.550;2022-12-07T00:06:34;11.57;;;4.55;;
20251;SDS011;10284;58.364;15.550;2022-12-07T00:09:04;12.13;;;5.22;;
20251;SDS011;10284;58.364;15.550;2022-12-07T00:11:30;11.38;;;4.82;;
20251;SDS011;10284;58.364;15.550;2022-12-07T00:13:57;8.88;;;4.63;;
20251;SDS011;10284;58.364;15.550;2022-12-07T00:16:25;9.57;;;4.57;;
20251;SDS011;10284;58.364;15.550;2022-12-07T00:18:51;9.30;;;4.65;;
20251;SDS011;10284;58.364;15.550;2022-12-07T00:21:21;10.45;;;4.90;;
20251;SDS011;10284;58.364;15.550;2022-12-07T00:23:49;11.93;;;4.75;;
20251;SDS011;10284;58.364;15.550;2022-12-07T00:26:16;8.95;;;4.57;;
20251;SDS011;10284;58.364;15.550;2022-12-07T00:28:47;12.52;;;4.82;;
20251;SDS011;10284;58.364;15.550;2022-12-07T00:31:13;10.90;;;4.72;;
20251;SDS011;10284;58.364;15.550;2022-12-07T00:33:39;13.90;;;5.18;;
20251;SDS011;10284;58.364;15.550;2022-12-07T00:36:12;7.43;;;4.32;;
20251;SDS011;10284;58.364;15.550;2022-12-07T00:38:39;10.68;;;4.85;;
20251;SDS011;10284;58.364;15.550;2022-12-07T00:41:05;12.30;;;5.03;;
20251;SDS011;10284;58.364;15.550;2022-12-07T00:43:41;10.43;;;4.40;;
20251;SDS011;10284;58.364;15.550;2022-12-07T00:46:08;13.93;;;4.63;;
20251;SDS011;10284;58.364;15.550;2022-12-07T00:48:34;8.63;;;4.53;;
20251;SDS011;10284;58.364;15.550;2022-12-07T00:50:59;12.13;;;4.55;;
20251;SDS011;10284;58.364;15.550;2022-12-07T00:53:26;11.82;;;4.30;;
20251;SDS011;10284;58.364;15.550;2022-12-07T00:55:52;8.77;;;4.00;;
20251;SDS011;10284;58.364;15.550;2022-12-07T00:58:21;6.95;;;4.00;;
20251;SDS011;10284;58.364;15.550;2022-12-07T01:00:46;8.73;;;4.43;;
20251;SDS011;10284;58.364;15.550;2022-12-07T01:03:12;6.53;;;3.58;;
20251;SDS011;10284;58.364;15.550;2022-12-07T01:05:38;9.50;;;4.15;;
20251;SDS011;10284;58.364;15.550;2022-12-07T01:08:04;7.38;;;4.28;;
20251;SDS011;10284;58.364;15.550;2022-12-07T01:10:30;8.18;;;4.70;;
20251;SDS011;10284;58.364;15.550;2022-12-07T01:12:56;7.95;;;4.18;;
20251;SDS011;10284;58.364;15.550;2022-12-07T01:15:22;12.45;;;4.40;;
20251;SDS011;10284;58.364;15.550;2022-12-07T01:17:47;8.55;;;4.20;;
20251;SDS011;10284;58.364;15.550;2022-12-07T01:20:13;8.38;;;4.25;;
20251;SDS011;10284;58.364;15.550;2022-12-07T01:22:39;8.82;;;4.20;;
20251;SDS011;10284;58.364;15.550;2022-12-07T01:25:06;8.23;;;4.03;;
20251;SDS011;10284;58.364;15.550;2022-12-07T01:27:32;8.65;;;4.10;;
20251;SDS011;10284;58.364;15.550;2022-12-07T01:29:59;8.70;;;3.97;;
20251;SDS011;10284;58.364;15.550;2022-12-07T01:32:24;42.15;;;5.55;;
20251;SDS011;10284;58.364;15.550;2022-12-07T01:34:50;6.63;;;3.85;;
20251;SDS011;10284;58.364;15.550;2022-12-07T01:37:15;7.07;;;4.10;;
20251;SDS011;10284;58.364;15.550;2022-12-07T01:39:40;16.60;;;4.63;;
20251;SDS011;10284;58.364;15.550;2022-12-07T01:42:10;16.17;;;3.92;;
20251;SDS011;10284;58.364;15.550;2022-12-07T01:47:38;10.32;;;4.00;;
20251;SDS011;10284;58.364;15.550;2022-12-07T01:50:04;8.50;;;4.22;;
20251;SDS011;10284;58.364;15.550;2022-12-07T01:52:31;7.97;;;4.38;;
20251;SDS011;10284;58.364;15.550;2022-12-07T01:54:59;9.32;;;3.90;;
20251;SDS011;10284;58.364;15.550;2022-12-07T01:57:27;9.85;;;4.20;;
20251;SDS011;10284;58.364;15.550;2022-12-07T01:59:52;9.15;;;3.97;;
20251;SDS011;10284;58.364;15.550;2022-12-07T02:02:32;8.88;;;4.20;;
20251;SDS011;10284;58.364;15.550;2022-12-07T02:04:59;8.10;;;3.67;;
20251;SDS011;10284;58.364;15.550;2022-12-07T02:07:26;6.63;;;3.65;;
20251;SDS011;10284;58.364;15.550;2022-12-07T02:09:53;9.75;;;3.60;;
20251;SDS011;10284;58.364;15.550;2022-12-07T02:12:18;10.70;;;3.70;;
20251;SDS011;10284;58.364;15.550;2022-12-07T02:14:44;8.10;;;3.88;;
20251;SDS011;10284;58.364;15.550;2022-12-07T02:17:28;6.85;;;3.67;;
20251;SDS011;10284;58.364;15.550;2022-12-07T02:30:33;5.95;;;2.83;;
20251;SDS011;10284;58.364;15.550;2022-12-07T02:33:02;8.70;;;3.40;;
20251;SDS011;10284;58.364;15.550;2022-12-07T02:35:39;6.65;;;3.50;;
20251;SDS011;10284;58.364;15.550;2022-12-07T02:40:38;6.95;;;3.30;;
20251;SDS011;10284;58.364;15.550;2022-12-07T02:43:12;5.38;;;3.30;;
20251;SDS011;10284;58.364;15.550;2022-12-07T02:45:42;7.72;;;3.40;;
20251;SDS011;10284;58.364;15.550;2022-12-07T02:48:10;10.15;;;4.03;;
20251;SDS011;10284;58.364;15.550;2022-12-07T02:50:37;6.00;;;3.17;;
20251;SDS011;10284;58.364;15.550;2022-12-07T02:53:02;8.00;;;3.90;;
20251;SDS011;10284;58.364;15.550;2022-12-07T02:55:29;6.82;;;3.75;;
20251;SDS011;10284;58.364;15.550;2022-12-07T03:00:29;5.90;;;3.30;;
20251;SDS011;10284;58.364;15.550;2022-12-07T03:03:00;4.80;;;3.25;;
20251;SDS011;10284;58.364;15.550;2022-12-07T03:10:48;8.07;;;3.45;;
20251;SDS011;10284;58.364;15.550;2022-12-07T03:18:44;5.93;;;3.63;;
20251;SDS011;10284;58.364;15.550;2022-12-07T03:21:13;9.45;;;3.47;;
20251;SDS011;10284;58.364;15.550;2022-12-07T03:23:40;8.05;;;3.67;;
20251;SDS011;10284;58.364;15.550;2022-12-07T03:26:06;6.85;;;3.50;;
20251;SDS011;10284;58.364;15.550;2022-12-07T03:28:35;10.38;;;3.53;;
20251;SDS011;10284;58.364;15.550;2022-12-07T03:31:09;6.72;;;3.50;;
20251;SDS011;10284;58.364;15.550;2022-12-07T03:34:02;7.53;;;3.83;;
20251;SDS011;10284;58.364;15.550;2022-12-07T03:36:51;8.70;;;3.30;;
20251;SDS011;10284;58.364;15.550;2022-12-07T03:39:24;9.88;;;3.53;;
20251;SDS011;10284;58.364;15.550;2022-12-07T03:42:03;5.80;;;3.55;;
20251;SDS011;10284;58.364;15.550;2022-12-07T03:44:30;6.15;;;3.30;;
20251;SDS011;10284;58.364;15.550;2022-12-07T03:47:42;9.07;;;3.40;;
20251;SDS011;10284;58.364;15.550;2022-12-07T03:49:58;7.38;;;3.53;;
20251;SDS011;10284;58.364;15.550;2022-12-07T03:52:47;5.85;;;3.63;;
20251;SDS011;10284;58.364;15.550;2022-12-07T03:55:23;6.63;;;3.42;;
20251;SDS011;10284;58.364;15.550;2022-12-07T03:57:53;6.35;;;3.00;;
20251;SDS011;10284;58.364;15.550;2022-12-07T04:00:20;9.45;;;3.40;;
20251;SDS011;10284;58.364;15.550;2022-12-07T04:02:46;7.32;;;3.25;;
20251;SDS011;10284;58.364;15.550;2022-12-07T04:05:12;6.85;;;3.20;;
20251;SDS011;10284;58.364;15.550;2022-12-07T04:07:37;5.50;;;3.33;;
20251;SDS011;10284;58.364;15.550;2022-12-07T04:10:03;6.32;;;3.22;;
20251;SDS011;10284;58.364;15.550;2022-12-07T04:12:29;5.70;;;3.22;;
20251;SDS011;10284;58.364;15.550;2022-12-07T04:14:54;6.05;;;3.08;;
20251;SDS011;10284;58.364;15.550;2022-12-07T04:17:20;6.95;;;3.20;;
20251;SDS011;10284;58.364;15.550;2022-12-07T04:19:45;9.45;;;3.35;;
20251;SDS011;10284;58.364;15.550;2022-12-07T04:22:10;6.18;;;3.30;;
20251;SDS011;10284;58.364;15.550;2022-12-07T04:24:36;5.30;;;3.25;;
20251;SDS011;10284;58.364;15.550;2022-12-07T04:27:02;5.95;;;3.40;;
20251;SDS011;10284;58.364;15.550;2022-12-07T04:29:27;5.88;;;3.30;;
20251;SDS011;10284;58.364;15.550;2022-12-07T04:31:52;7.18;;;3.40;;
20251;SDS011;10284;58.364;15.550;2022-12-07T04:34:19;7.70;;;3.70;;
20251;SDS011;10284;58.364;15.550;2022-12-07T04:36:45;8.23;;;3.40;;
20251;SDS011;10284;58.364;15.550;2022-12-07T04:39:21;8.30;;;2.80;;
20251;SDS011;10284;58.364;15.550;2022-12-07T04:41:48;6.80;;;3.15;;
20251;SDS011;10284;58.364;15.550;2022-12-07T04:44:14;5.80;;;2.83;;
20251;SDS011;10284;58.364;15.550;2022-12-07T04:46:40;10.48;;;3.35;;
20251;SDS011;10284;58.364;15.550;2022-12-07T04:49:06;7.85;;;3.17;;
20251;SDS011;10284;58.364;15.550;2022-12-07T04:51:31;8.73;;;3.40;;
20251;SDS011;10284;58.364;15.550;2022-12-07T04:53:57;7.32;;;2.92;;
20251;SDS011;10284;58.364;15.550;2022-12-07T04:56:23;5.65;;;3.15;;
20251;SDS011;10284;58.364;15.550;2022-12-07T04:58:48;5.78;;;3.10;;
20251;SDS011;10284;58.364;15.550;2022-12-07T05:01:14;9.20;;;3.10;;
20251;SDS011;10284;58.364;15.550;2022-12-07T05:03:41;8.77;;;3.42;;
20251;SDS011;10284;58.364;15.550;2022-12-07T05:06:06;6.72;;;3.30;;
20251;SDS011;10284;58.364;15.550;2022-12-07T05:08:32;7.28;;;3.25;;
20251;SDS011;10284;58.364;15.550;2022-12-07T05:10:58;6.57;;;2.90;;
20251;SDS011;10284;58.364;15.550;2022-12-07T05:13:24;10.35;;;3.78;;
20251;SDS011;10284;58.364;15.550;2022-12-07T05:15:49;8.40;;;3.75;;
20251;SDS011;10284;58.364;15.550;2022-12-07T05:18:15;5.82;;;3.17;;
20251;SDS011;10284;58.364;15.550;2022-12-07T05:20:41;6.30;;;3.20;;
20251;SDS011;10284;58.364;15.550;2022-12-07T05:23:06;6.00;;;3.03;;
20251;SDS011;10284;58.364;15.550;2022-12-07T05:25:32;7.88;;;3.55;;
20251;SDS011;10284;58.364;15.550;2022-12-07T05:27:57;8.18;;;2.83;;
20251;SDS011;10284;58.364;15.550;2022-12-07T05:30:23;8.10;;;2.95;;
20251;SDS011;10284;58.364;15.550;2022-12-07T05:32:49;6.60;;;2.97;;
20251;SDS011;10284;58.364;15.550;2022-12-07T05:35:15;5.63;;;2.85;;
20251;SDS011;10284;58.364;15.550;2022-12-07T05:37:40;7.65;;;2.85;;
20251;SDS011;10284;58.364;15.550;2022-12-07T05:40:06;5.93;;;2.65;;
20251;SDS011;10284;58.364;15.550;2022-12-07T05:42:32;3.67;;;2.70;;
20251;SDS011;10284;58.364;15.550;2022-12-07T05:44:58;8.90;;;3.28;;
20251;SDS011;10284;58.364;15.550;2022-12-07T05:47:23;6.35;;;2.90;;
20251;SDS011;10284;58.364;15.550;2022-12-07T05:49:48;10.98;;;2.70;;
20251;SDS011;10284;58.364;15.550;2022-12-07T05:52:14;9.43;;;3.47;;
20251;SDS011;10284;58.364;15.550;2022-12-07T05:54:39;5.45;;;2.72;;
20251;SDS011;10284;58.364;15.550;2022-12-07T05:57:05;7.20;;;3.00;;
20251;SDS011;10284;58.364;15.550;2022-12-07T05:59:30;9.73;;;2.97;;
20251;SDS011;10284;58.364;15.550;2022-12-07T06:01:57;7.50;;;2.85;;
20251;SDS011;10284;58.364;15.550;2022-12-07T06:04:28;6.72;;;3.10;;
20251;SDS011;10284;58.364;15.550;2022-12-07T06:06:55;6.65;;;2.75;;
20251;SDS011;10284;58.364;15.550;2022-12-07T06:09:21;5.05;;;2.90;;
20251;SDS011;10284;58.364;15.550;2022-12-07T06:11:47;6.03;;;2.58;;
20251;SDS011;10284;58.364;15.550;2022-12-07T06:14:31;10.27;;;2.85;;
20251;SDS011;10284;58.364;15.550;2022-12-07T06:16:57;7.53;;;3.33;;
20251;SDS011;10284;58.364;15.550;2022-12-07T06:19:23;7.95;;;3.00;;
20251;SDS011;10284;58.364;15.550;2022-12-07T06:21:48;8.82;;;3.42;;
20251;SDS011;10284;58.364;15.550;2022-12-07T06:24:14;5.68;;;3.10;;
20251;SDS011;10284;58.364;15.550;2022-12-07T06:26:41;5.40;;;2.90;;
20251;SDS011;10284;58.364;15.550;2022-12-07T06:29:07;8.63;;;3.33;;
20251;SDS011;10284;58.364;15.550;2022-12-07T06:31:33;10.85;;;3.63;;
20251;SDS011;10284;58.364;15.550;2022-12-07T06:33:59;5.95;;;3.13;;
20251;SDS011;10284;58.364;15.550;2022-12-07T06:36:28;8.63;;;3.97;;
20251;SDS011;10284;58.364;15.550;2022-12-07T06:38:54;8.48;;;3.03;;
20251;SDS011;10284;58.364;15.550;2022-12-07T06:41:20;9.95;;;3.50;;
20251;SDS011;10284;58.364;15.550;2022-12-07T06:43:45;7.75;;;3.42;;
20251;SDS011;10284;58.364;15.550;2022-12-07T06:46:11;8.43;;;3.15;;
20251;SDS011;10284;58.364;15.550;2022-12-07T06:48:36;10.50;;;3.15;;
20251;SDS011;10284;58.364;15.550;2022-12-07T06:51:02;9.15;;;3.70;;
20251;SDS011;10284;58.364;15.550;2022-12-07T06:53:27;8.07;;;3.65;;
20251;SDS011;10284;58.364;15.550;2022-12-07T06:55:53;8.73;;;3.28;;
20251;SDS011;10284;58.364;15.550;2022-12-07T06:58:18;6.32;;;3.05;;
20251;SDS011;10284;58.364;15.550;2022-12-07T07:00:44;5.72;;;2.88;;
20251;SDS011;10284;58.364;15.550;2022-12-07T07:03:10;5.50;;;3.33;;
20251;SDS011;10284;58.364;15.550;2022-12-07T07:05:35;4.47;;;2.78;;
20251;SDS011;10284;58.364;15.550;2022-12-07T07:08:01;6.28;;;3.28;;
20251;SDS011;10284;58.364;15.550;2022-12-07T07:10:26;5.75;;;3.10;;
20251;SDS011;10284;58.364;15.550;2022-12-07T07:12:52;11.93;;;3.25;;
20251;SDS011;10284;58.364;15.550;2022-12-07T07:15:17;5.82;;;2.92;;
20251;SDS011;10284;58.364;15.550;2022-12-07T07:17:43;12.20;;;3.30;;
20251;SDS011;10284;58.364;15.550;2022-12-07T07:20:08;5.68;;;2.90;;
20251;SDS011;10284;58.364;15.550;2022-12-07T07:22:34;6.25;;;3.22;;
20251;SDS011;10284;58.364;15.550;2022-12-07T07:24:59;6.15;;;3.00;;
20251;SDS011;10284;58.364;15.550;2022-12-07T07:27:25;7.97;;;2.83;;
20251;SDS011;10284;58.364;15.550;2022-12-07T07:29:50;8.55;;;3.72;;
20251;SDS011;10284;58.364;15.550;2022-12-07T07:32:15;7.53;;;3.30;;
20251;SDS011;10284;58.364;15.550;2022-12-07T07:34:41;6.05;;;3.15;;
20251;SDS011;10284;58.364;15.550;2022-12-07T07:37:06;7.40;;;3.00;;
20251;SDS011;10284;58.364;15.550;2022-12-07T07:39:32;6.13;;;2.95;;
20251;SDS011;10284;58.364;15.550;2022-12-07T07:41:57;6.07;;;3.20;;
20251;SDS011;10284;58.364;15.550;2022-12-07T07:44:22;7.63;;;2.92;;
20251;SDS011;10284;58.364;15.550;2022-12-07T07:46:48;9.32;;;3.33;;
20251;SDS011;10284;58.364;15.550;2022-12-07T07:49:13;8.77;;;3.22;;
20251;SDS011;10284;58.364;15.550;2022-12-07T07:51:39;8.07;;;3.00;;
20251;SDS011;10284;58.364;15.550;2022-12-07T07:54:04;7.00;;;3.28;;
20251;SDS011;10284;58.364;15.550;2022-12-07T07:56:30;8.85;;;3.25;;
20251;SDS011;10284;58.364;15.550;2022-12-07T07:58:55;5.85;;;2.90;;
20251;SDS011;10284;58.364;15.550;2022-12-07T08:01:21;5.13;;;3.20;;
20251;SDS011;10284;58.364;15.550;2022-12-07T08:03:46;6.18;;;3.28;;
20251;SDS011;10284;58.364;15.550;2022-12-07T08:06:12;6.13;;;3.00;;
20251;SDS011;10284;58.364;15.550;2022-12-07T08:08:37;8.27;;;3.03;;
20251;SDS011;10284;58.364;15.550;2022-12-07T08:11:06;7.97;;;3.35;;
20251;SDS011;10284;58.364;15.550;2022-12-07T08:13:32;8.35;;;3.40;;
20251;SDS011;10284;58.364;15.550;2022-12-07T08:15:57;5.88;;;2.85;;
20251;SDS011;10284;58.364;15.550;2022-12-07T08:18:23;7.05;;;3.50;;
20251;SDS011;10284;58.364;15.550;2022-12-07T08:20:48;9.88;;;3.17;;
20251;SDS011;10284;58.364;15.550;2022-12-07T08:23:14;7.70;;;3.42;;
20251;SDS011;10284;58.364;15.550;2022-12-07T08:25:39;8.90;;;3.90;;
20251;SDS011;10284;58.364;15.550;2022-12-07T08:28:05;10.00;;;3.60;;
20251;SDS011;10284;58.364;15.550;2022-12-07T08:30:30;13.52;;;3.97;;
20251;SDS011;10284;58.364;15.550;2022-12-07T08:32:56;7.18;;;3.30;;
20251;SDS011;10284;58.364;15.550;2022-12-07T08:35:22;8.13;;;3.72;;
20251;SDS011;10284;58.364;15.550;2022-12-07T08:37:48;10.70;;;4.30;;
20251;SDS011;10284;58.364;15.550;2022-12-07T08:40:13;11.60;;;4.13;;
20251;SDS011;10284;58.364;15.550;2022-12-07T08:42:44;10.93;;;4.35;;
20251;SDS011;10284;58.364;15.550;2022-12-07T08:45:13;10.90;;;4.65;;
20251;SDS011;10284;58.364;15.550;2022-12-07T08:47:42;11.32;;;4.20;;
20251;SDS011;10284;58.364;15.550;2022-12-07T08:50:10;11.02;;;4.30;;
20251;SDS011;10284;58.364;15.550;2022-12-07T08:52:36;12.07;;;5.10;;
20251;SDS011;10284;58.364;15.550;2022-12-07T08:55:02;10.07;;;5.03;;
20251;SDS011;10284;58.364;15.550;2022-12-07T08:57:28;13.20;;;6.05;;
20251;SDS011;10284;58.364;15.550;2022-12-07T08:59:54;10.13;;;5.28;;
20251;SDS011;10284;58.364;15.550;2022-12-07T09:02:20;12.32;;;4.55;;
20251;SDS011;10284;58.364;15.550;2022-12-07T09:04:45;9.15;;;4.47;;
20251;SDS011;10284;58.364;15.550;2022-12-07T09:07:10;8.25;;;3.90;;
20251;SDS011;10284;58.364;15.550;2022-12-07T09:09:36;6.25;;;3.78;;
20251;SDS011;10284;58.364;15.550;2022-12-07T09:12:01;5.70;;;3.80;;
20251;SDS011;10284;58.364;15.550;2022-12-07T09:14:27;6.00;;;3.67;;
20251;SDS011;10284;58.364;15.550;2022-12-07T09:16:53;7.22;;;3.25;;
20251;SDS011;10284;58.364;15.550;2022-12-07T09:19:18;7.30;;;4.05;;
20251;SDS011;10284;58.364;15.550;2022-12-07T09:21:44;6.55;;;4.00;;
20251;SDS011;10284;58.364;15.550;2022-12-07T09:24:09;6.45;;;4.13;;
20251;SDS011;10284;58.364;15.550;2022-12-07T09:26:35;9.45;;;4.03;;
20251;SDS011;10284;58.364;15.550;2022-12-07T09:29:01;10.60;;;3.83;;
20251;SDS011;10284;58.364;15.550;2022-12-07T09:31:27;8.15;;;3.53;;
20251;SDS011;10284;58.364;15.550;2022-12-07T09:33:56;7.55;;;3.28;;
20251;SDS011;10284;58.364;15.550;2022-12-07T09:36:23;7.82;;;2.70;;
20251;SDS011;10284;58.364;15.550;2022-12-07T09:38:49;9.65;;;3.08;;
20251;SDS011;10284;58.364;15.550;2022-12-07T09:41:15;5.72;;;2.97;;
20251;SDS011;10284;58.364;15.550;2022-12-07T09:43:41;6.13;;;3.05;;
20251;SDS011;10284;58.364;15.550;2022-12-07T09:46:08;9.18;;;3.42;;
20251;SDS011;10284;58.364;15.550;2022-12-07T09:48:36;3.10;;;2.72;;
20251;SDS011;10284;58.364;15.550;2022-12-07T09:51:02;6.50;;;2.70;;
20251;SDS011;10284;58.364;15.550;2022-12-07T09:53:45;9.40;;;3.00;;
20251;SDS011;10284;58.364;15.550;2022-12-07T09:56:11;4.55;;;3.00;;
20251;SDS011;10284;58.364;15.550;2022-12-07T09:58:38;8.65;;;3.40;;
20251;SDS011;10284;58.364;15.550;2022-12-07T10:03:32;6.82;;;3.45;;
20251;SDS011;10284;58.364;15.550;2022-12-07T10:05:59;7.85;;;3.05;;
20251;SDS011;10284;58.364;15.550;2022-12-07T10:08:25;10.40;;;3.55;;
20251;SDS011;10284;58.364;15.550;2022-12-07T10:10:52;6.97;;;3.17;;
20251;SDS011;10284;58.364;15.550;2022-12-07T10:13:19;8.13;;;3.15;;
20251;SDS011;10284;58.364;15.550;2022-12-07T10:21:36;6.70;;;3.15;;
20251;SDS011;10284;58.364;15.550;2022-12-07T10:26:34;8.90;;;2.92;;
20251;SDS011;10284;58.364;15.550;2022-12-07T10:29:46;12.95;;;3.08;;
20251;SDS011;10284;58.364;15.550;2022-12-07T10:32:04;12.23;;;2.80;;
20251;SDS011;10284;58.364;15.550;2022-12-07T10:34:30;7.32;;;2.65;;
20251;SDS011;10284;58.364;15.550;2022-12-07T10:42:20;5.28;;;2.65;;
20251;SDS011;10284;58.364;15.550;2022-12-07T10:50:22;6.43;;;2.78;;
20251;SDS011;10284;58.364;15.550;2022-12-07T10:59:11;3.35;;;2.60;;
20251;SDS011;10284;58.364;15.550;2022-12-07T11:19:05;6.53;;;3.08;;
20251;SDS011;10284;58.364;15.550;2022-12-07T11:24:15;10.80;;;3.15;;
20251;SDS011;10284;58.364;15.550;2022-12-07T11:37:43;6.80;;;3.00;;
20251;SDS011;10284;58.364;15.550;2022-12-07T11:42:41;7.90;;;3.92;;
20251;SDS011;10284;58.364;15.550;2022-12-07T11:45:15;9.27;;;3.42;;
20251;SDS011;10284;58.364;15.550;2022-12-07T11:55:56;3.83;;;2.53;;
20251;SDS011;10284;58.364;15.550;2022-12-07T12:03:38;6.45;;;3.08;;
20251;SDS011;10284;58.364;15.550;2022-12-07T12:06:19;9.00;;;3.30;;
20251;SDS011;10284;58.364;15.550;2022-12-07T12:08:48;5.65;;;2.92;;
20251;SDS011;10284;58.364;15.550;2022-12-07T12:17:11;6.32;;;3.03;;
20251;SDS011;10284;58.364;15.550;2022-12-07T12:19:42;6.63;;;2.78;;
20251;SDS011;10284;58.364;15.550;2022-12-07T12:22:17;9.25;;;3.47;;
20251;SDS011;10284;58.364;15.550;2022-12-07T12:24:44;11.55;;;3.28;;
20251;SDS011;10284;58.364;15.550;2022-12-07T12:27:35;7.57;;;3.25;;
20251;SDS011;10284;58.364;15.550;2022-12-07T12:30:04;10.38;;;3.00;;
20251;SDS011;10284;58.364;15.550;2022-12-07T12:32:42;6.18;;;3.55;;
20251;SDS011;10284;58.364;15.550;2022-12-07T12:35:22;7.13;;;3.03;;
20251;SDS011;10284;58.364;15.550;2022-12-07T12:37:51;8.50;;;3.83;;
20251;SDS011;10284;58.364;15.550;2022-12-07T12:42:47;6.50;;;3.25;;
20251;SDS011;10284;58.364;15.550;2022-12-07T12:45:22;10.88;;;3.35;;
20251;SDS011;10284;58.364;15.550;2022-12-07T12:47:58;5.45;;;3.10;;
20251;SDS011;10284;58.364;15.550;2022-12-07T12:50:39;6.35;;;2.70;;
20251;SDS011;10284;58.364;15.550;2022-12-07T12:58:30;11.52;;;3.50;;
20251;SDS011;10284;58.364;15.550;2022-12-07T13:03:55;8.85;;;2.85;;
20251;SDS011;10284;58.364;15.550;2022-12-07T13:08:49;9.52;;;2.97;;
20251;SDS011;10284;58.364;15.550;2022-12-07T13:11:16;7.95;;;3.03;;
20251;SDS011;10284;58.364;15.550;2022-12-07T13:13:49;6.28;;;2.58;;
20251;SDS011;10284;58.364;15.550;2022-12-07T13:18:40;5.38;;;2.90;;
20251;SDS011;10284;58.364;15.550;2022-12-07T13:28:49;8.93;;;2.60;;
20251;SDS011;10284;58.364;15.550;2022-12-07T13:34:29;4.63;;;2.35;;
20251;SDS011;10284;58.364;15.550;2022-12-07T13:36:58;4.53;;;2.10;;
20251;SDS011;10284;58.364;15.550;2022-12-07T13:39:25;4.70;;;2.80;;
20251;SDS011;10284;58.364;15.550;2022-12-07T13:41:55;6.40;;;2.95;;
20251;SDS011;10284;58.364;15.550;2022-12-07T13:44:22;4.13;;;2.50;;
20251;SDS011;10284;58.364;15.550;2022-12-07T13:47:32;6.45;;;3.42;;
20251;SDS011;10284;58.364;15.550;2022-12-07T13:49:52;6.28;;;2.80;;
20251;SDS011;10284;58.364;15.550;2022-12-07T13:52:23;8.23;;;3.20;;
20251;SDS011;10284;58.364;15.550;2022-12-07T13:57:25;6.53;;;2.90;;
20251;SDS011;10284;58.364;15.550;2022-12-07T13:59:52;7.28;;;3.08;;
20251;SDS011;10284;58.364;15.550;2022-12-07T14:02:25;8.20;;;3.35;;
20251;SDS011;10284;58.364;15.550;2022-12-07T14:05:05;6.63;;;2.50;;
20251;SDS011;10284;58.364;15.550;2022-12-07T14:07:32;8.38;;;3.08;;
20251;SDS011;10284;58.364;15.550;2022-12-07T14:10:03;6.25;;;2.83;;
20251;SDS011;10284;58.364;15.550;2022-12-07T14:12:30;6.50;;;2.60;;
20251;SDS011;10284;58.364;15.550;2022-12-07T14:14:56;8.18;;;2.85;;
20251;SDS011;10284;58.364;15.550;2022-12-07T14:17:24;6.65;;;2.78;;
20251;SDS011;10284;58.364;15.550;2022-12-07T14:22:28;8.05;;;3.17;;
20251;SDS011;10284;58.364;15.550;2022-12-07T14:25:02;8.43;;;2.95;;
20251;SDS011;10284;58.364;15.550;2022-12-07T14:27:34;6.53;;;2.40;;
20251;SDS011;10284;58.364;15.550;2022-12-07T14:30:01;5.55;;;2.67;;
20251;SDS011;10284;58.364;15.550;2022-12-07T14:32:27;4.68;;;2.65;;
20251;SDS011;10284;58.364;15.550;2022-12-07T14:34:54;8.38;;;2.80;;
20251;SDS011;10284;58.364;15.550;2022-12-07T14:37:23;5.32;;;2.50;;
20251;SDS011;10284;58.364;15.550;2022-12-07T14:39:49;5.45;;;2.97;;
20251;SDS011;10284;58.364;15.550;2022-12-07T14:42:14;5.22;;;2.60;;
20251;SDS011;10284;58.364;15.550;2022-12-07T14:44:40;4.70;;;2.50;;
20251;SDS011;10284;58.364;15.550;2022-12-07T14:47:08;8.43;;;2.78;;
20251;SDS011;10284;58.364;15.550;2022-12-07T14:49:34;9.20;;;3.08;;
20251;SDS011;10284;58.364;15.550;2022-12-07T14:52:00;8.50;;;2.63;;
20251;SDS011;10284;58.364;15.550;2022-12-07T14:54:25;4.97;;;2.53;;
20251;SDS011;10284;58.364;15.550;2022-12-07T14:56:51;7.95;;;2.65;;
20251;SDS011;10284;58.364;15.550;2022-12-07T14:59:16;4.93;;;2.70;;
20251;SDS011;10284;58.364;15.550;2022-12-07T15:01:43;3.45;;;2.85;;
20251;SDS011;10284;58.364;15.550;2022-12-07T15:04:09;2.97;;;2.05;;
20251;SDS011;10284;58.364;15.550;2022-12-07T15:06:34;7.38;;;3.42;;
20251;SDS011;10284;58.364;15.550;2022-12-07T15:09:00;4.20;;;2.60;;
20251;SDS011;10284;58.364;15.550;2022-12-07T15:11:26;4.65;;;2.70;;
20251;SDS011;10284;58.364;15.550;2022-12-07T15:13:51;8.27;;;2.75;;
20251;SDS011;10284;58.364;15.550;2022-12-07T15:19:04;3.88;;;2.72;;
20251;SDS011;10284;58.364;15.550;2022-12-07T15:21:30;8.80;;;2.75;;
20251;SDS011;10284;58.364;15.550;2022-12-07T15:23:55;4.32;;;2.45;;
20251;SDS011;10284;58.364;15.550;2022-12-07T15:26:21;5.15;;;2.60;;
20251;SDS011;10284;58.364;15.550;2022-12-07T15:28:46;3.92;;;2.60;;
20251;SDS011;10284;58.364;15.550;2022-12-07T15:31:12;5.88;;;2.58;;
20251;SDS011;10284;58.364;15.550;2022-12-07T15:33:38;7.43;;;3.17;;
20251;SDS011;10284;58.364;15.550;2022-12-07T15:36:03;2.92;;;2.35;;
20251;SDS011;10284;58.364;15.550;2022-12-07T15:38:29;5.72;;;2.55;;
20251;SDS011;10284;58.364;15.550;2022-12-07T15:40:55;5.30;;;2.60;;
20251;SDS011;10284;58.364;15.550;2022-12-07T15:43:21;4.40;;;2.75;;
20251;SDS011;10284;58.364;15.550;2022-12-07T15:46:05;5.07;;;2.78;;
20251;SDS011;10284;58.364;15.550;2022-12-07T15:48:30;3.08;;;2.53;;
20251;SDS011;10284;58.364;15.550;2022-12-07T15:51:06;7.47;;;3.13;;
20251;SDS011;10284;58.364;15.550;2022-12-07T15:53:32;4.00;;;2.65;;
20251;SDS011;10284;58.364;15.550;2022-12-07T15:55:58;4.75;;;3.03;;
20251;SDS011;10284;58.364;15.550;2022-12-07T15:58:24;8.43;;;2.80;;
20251;SDS011;10284;58.364;15.550;2022-12-07T16:00:49;5.55;;;2.50;;
20251;SDS011;10284;58.364;15.550;2022-12-07T16:03:15;4.60;;;2.90;;
20251;SDS011;10284;58.364;15.550;2022-12-07T16:05:40;5.68;;;2.75;;
20251;SDS011;10284;58.364;15.550;2022-12-07T16:08:06;4.72;;;2.78;;
20251;SDS011;10284;58.364;15.550;2022-12-07T16:10:32;3.83;;;2.30;;
20251;SDS011;10284;58.364;15.550;2022-12-07T16:12:58;4.88;;;2.40;;
20251;SDS011;10284;58.364;15.550;2022-12-07T16:15:23;4.68;;;2.22;;
20251;SDS011;10284;58.364;15.550;2022-12-07T16:17:50;2.78;;;2.03;;
20251;SDS011;10284;58.364;15.550;2022-12-07T16:20:16;3.60;;;2.05;;
20251;SDS011;10284;58.364;15.550;2022-12-07T16:22:42;4.32;;;2.30;;
20251;SDS011;10284;58.364;15.550;2022-12-07T16:25:07;5.68;;;2.17;;
20251;SDS011;10284;58.364;15.550;2022-12-07T16:27:34;4.63;;;2.58;;
20251;SDS011;10284;58.364;15.550;2022-12-07T16:29:59;6.90;;;2.80;;
20251;SDS011;10284;58.364;15.550;2022-12-07T16:32:25;2.60;;;2.40;;
20251;SDS011;10284;58.364;15.550;2022-12-07T16:34:50;3.42;;;2.45;;
20251;SDS011;10284;58.364;15.550;2022-12-07T16:37:15;6.43;;;2.15;;
20251;SDS011;10284;58.364;15.550;2022-12-07T16:39:41;6.25;;;2.60;;
20251;SDS011;10284;58.364;15.550;2022-12-07T16:42:06;6.85;;;3.03;;
20251;SDS011;10284;58.364;15.550;2022-12-07T16:44:32;7.68;;;3.55;;
20251;SDS011;10284;58.364;15.550;2022-12-07T16:46:57;5.45;;;3.45;;
20251;SDS011;10284;58.364;15.550;2022-12-07T16:49:23;5.35;;;3.45;;
20251;SDS011;10284;58.364;15.550;2022-12-07T16:51:49;6.70;;;3.28;;
20251;SDS011;10284;58.364;15.550;2022-12-07T16:54:15;4.53;;;2.80;;
20251;SDS011;10284;58.364;15.550;2022-12-07T16:56:40;6.82;;;2.90;;
20251;SDS011;10284;58.364;15.550;2022-12-07T16:59:06;7.82;;;3.22;;
20251;SDS011;10284;58.364;15.550;2022-12-07T17:01:32;13.95;;;3.50;;